createdAt,value
2019-03-03T00:00:13.800Z,19.5
2019-03-03T00:01:13.880Z,19.5
2019-03-03T00:02:13.693Z,19.5
2019-03-03T00:03:14.026Z,19.5
2019-03-03T00:04:13.670Z,19.5
2019-03-03T00:05:13.801Z,19.5
2019-03-03T00:06:13.859Z,19.5
2019-03-03T00:07:13.616Z,19.5
2019-03-03T00:08:13.670Z,19.5
2019-03-03T00:09:14.021Z,19.5
2019-03-03T00:10:13.920Z,19.5
2019-03-03T00:11:13.806Z,19.5
2019-03-03T00:12:13.851Z,19.5
2019-03-03T00:13:13.879Z,19.5
2019-03-03T00:14:13.660Z,19.5
2019-03-03T00:15:13.842Z,19.5
2019-03-03T00:16:13.839Z,19.5
2019-03-03T00:17:13.804Z,19.5
2019-03-03T00:18:13.842Z,19.5
2019-03-03T00:19:13.831Z,19.5
2019-03-03T00:20:13.810Z,19.5
2019-03-03T00:21:13.785Z,19.5
2019-03-03T00:22:13.984Z,19.5
2019-03-03T00:23:13.802Z,19.5
2019-03-03T00:24:13.766Z,19.5
2019-03-03T00:25:13.694Z,19.5
2019-03-03T00:26:13.898Z,19.5
2019-03-03T00:27:14.246Z,19.5
2019-03-03T00:28:13.633Z,19.5
2019-03-03T00:29:13.743Z,19.5
2019-03-03T00:30:13.821Z,19.5
2019-03-03T00:31:13.855Z,19.5
2019-03-03T00:32:13.671Z,19.5
2019-03-03T00:33:13.850Z,19.5
2019-03-03T00:34:13.882Z,19.5
2019-03-03T00:35:13.739Z,19.5
2019-03-03T00:36:13.817Z,19.5
2019-03-03T00:37:13.946Z,19.5
2019-03-03T00:38:13.713Z,19.5
2019-03-03T00:39:13.810Z,19.5
2019-03-03T00:40:13.934Z,19.5
2019-03-03T00:41:13.675Z,19.5
2019-03-03T00:42:13.867Z,19.5
2019-03-03T00:43:13.628Z,19.5
2019-03-03T00:44:13.701Z,19.5
2019-03-03T00:45:13.849Z,19.5
2019-03-03T00:46:13.597Z,19.5
2019-03-03T00:47:13.658Z,19.5
2019-03-03T00:48:13.981Z,19.5
2019-03-03T00:49:13.814Z,19.25
2019-03-03T00:50:13.725Z,19.5
2019-03-03T00:51:13.882Z,19.5
2019-03-03T00:52:14.420Z,19.5
2019-03-03T00:53:13.844Z,19.25
2019-03-03T00:54:14.004Z,19.5
2019-03-03T00:55:14.037Z,19.25
2019-03-03T00:56:13.656Z,19.25
2019-03-03T00:57:13.823Z,19.25
2019-03-03T00:58:13.843Z,19.25
2019-03-03T00:59:13.776Z,19.25
2019-03-03T01:00:13.800Z,19.25
2019-03-03T01:01:13.829Z,19.25
2019-03-03T01:02:13.715Z,19.25
2019-03-03T01:03:13.821Z,19.25
2019-03-03T01:04:13.785Z,19.25
2019-03-03T01:05:13.697Z,19.25
2019-03-03T01:06:13.834Z,19.25
2019-03-03T01:07:13.786Z,19.25
2019-03-03T01:08:13.711Z,19.25
2019-03-03T01:09:13.825Z,19.25
2019-03-03T01:10:13.846Z,19.25
2019-03-03T01:11:13.665Z,19.25
2019-03-03T01:12:13.792Z,19.25
2019-03-03T01:13:13.854Z,19.25
2019-03-03T01:14:13.639Z,19.25
2019-03-03T01:15:13.775Z,19.25
2019-03-03T01:16:13.840Z,19.25
2019-03-03T01:17:13.671Z,19.25
2019-03-03T01:18:13.846Z,19.25
2019-03-03T01:19:13.818Z,19.25
2019-03-03T01:20:13.606Z,19.25
2019-03-03T01:21:13.729Z,19.25
2019-03-03T01:22:13.808Z,19.25
2019-03-03T01:23:13.760Z,19.25
2019-03-03T01:24:13.784Z,19.25
2019-03-03T01:25:13.862Z,19.25
2019-03-03T01:26:13.736Z,19.25
2019-03-03T01:27:13.780Z,19.25
2019-03-03T01:28:13.802Z,19.25
2019-03-03T01:29:13.631Z,19.25
2019-03-03T01:30:13.822Z,19.25
2019-03-03T01:31:14.082Z,19.25
2019-03-03T01:32:13.861Z,19.25
2019-03-03T01:33:13.763Z,19.25
2019-03-03T01:34:13.877Z,19.25
2019-03-03T01:35:13.644Z,19.25
2019-03-03T01:36:13.753Z,19.25
2019-03-03T01:37:13.770Z,19.25
2019-03-03T01:38:13.760Z,19.25
2019-03-03T01:39:13.808Z,19.25
2019-03-03T01:40:13.905Z,19.25
2019-03-03T01:41:13.638Z,19.25
2019-03-03T01:42:13.847Z,19.25
2019-03-03T01:43:13.958Z,19.25
2019-03-03T01:44:13.639Z,19.25
2019-03-03T01:45:13.739Z,19.25
2019-03-03T01:46:13.792Z,19.25
2019-03-03T01:47:13.667Z,19.25
2019-03-03T01:48:13.734Z,19.25
2019-03-03T01:49:13.804Z,19.25
2019-03-03T01:50:13.642Z,19.25
2019-03-03T01:51:13.838Z,19.25
2019-03-03T01:52:13.764Z,19.25
2019-03-03T01:53:14.168Z,19.25
2019-03-03T01:54:13.796Z,19.25
2019-03-03T01:55:13.799Z,19.25
2019-03-03T01:56:13.640Z,19.25
2019-03-03T01:57:13.806Z,19.25
2019-03-03T01:58:13.768Z,19.25
2019-03-03T01:59:13.752Z,19.25
2019-03-03T02:00:13.805Z,19.25
2019-03-03T02:01:13.828Z,19.25
2019-03-03T02:02:13.714Z,19.25
2019-03-03T02:03:13.774Z,19.25
2019-03-03T02:04:13.845Z,19.25
2019-03-03T02:05:13.654Z,19.25
2019-03-03T02:06:13.773Z,19.25
2019-03-03T02:07:13.737Z,19.25
2019-03-03T02:08:13.755Z,19.25
2019-03-03T02:09:13.762Z,19.25
2019-03-03T02:10:13.755Z,19.25
2019-03-03T02:11:13.626Z,19.25
2019-03-03T02:12:13.755Z,19.25
2019-03-03T02:13:13.882Z,19.25
2019-03-03T02:14:13.597Z,19.25
2019-03-03T02:15:13.781Z,19.25
2019-03-03T02:16:13.753Z,19.25
2019-03-03T02:17:13.782Z,19.25
2019-03-03T02:18:13.690Z,19.25
2019-03-03T02:19:13.826Z,19.25
2019-03-03T02:20:13.622Z,19.25
2019-03-03T02:21:13.843Z,19.25
2019-03-03T02:22:13.752Z,19.25
2019-03-03T02:23:13.642Z,19.25
2019-03-03T02:24:13.976Z,19.25
2019-03-03T02:25:13.756Z,19.25
2019-03-03T02:26:13.715Z,19.25
2019-03-03T02:27:13.750Z,19
2019-03-03T02:28:13.837Z,19
2019-03-03T02:29:13.635Z,19.25
2019-03-03T02:30:13.886Z,19
2019-03-03T02:31:13.875Z,19.25
2019-03-03T02:32:13.637Z,19
2019-03-03T02:33:13.806Z,19
2019-03-03T02:34:13.809Z,19
2019-03-03T02:35:13.728Z,19
2019-03-03T02:36:13.851Z,19
2019-03-03T02:37:13.801Z,19
2019-03-03T02:38:13.614Z,19
2019-03-03T02:39:13.885Z,19
2019-03-03T02:40:13.835Z,19
2019-03-03T02:41:13.945Z,19
2019-03-03T02:42:13.787Z,19
2019-03-03T02:43:13.791Z,19
2019-03-03T02:44:13.748Z,19
2019-03-03T02:45:13.780Z,19
2019-03-03T02:46:13.886Z,19
2019-03-03T02:47:14.246Z,19
2019-03-03T02:48:13.823Z,19
2019-03-03T02:49:13.777Z,19
2019-03-03T02:50:13.755Z,19
2019-03-03T02:51:13.948Z,19
2019-03-03T02:52:13.951Z,19
2019-03-03T02:53:13.668Z,19
2019-03-03T02:54:13.785Z,19
2019-03-03T02:55:13.840Z,19
2019-03-03T02:56:13.741Z,19
2019-03-03T02:57:13.805Z,19
2019-03-03T02:58:13.924Z,19
2019-03-03T02:59:13.756Z,19
2019-03-03T03:00:13.810Z,19
2019-03-03T03:01:13.814Z,19
2019-03-03T03:02:13.670Z,19
2019-03-03T03:03:13.820Z,19
2019-03-03T03:04:13.824Z,19
2019-03-03T03:05:13.762Z,19
2019-03-03T03:06:13.825Z,19
2019-03-03T03:07:13.623Z,19
2019-03-03T03:08:14.068Z,19
2019-03-03T03:09:13.785Z,19
2019-03-03T03:10:13.831Z,19
2019-03-03T03:11:13.608Z,19
2019-03-03T03:12:13.791Z,19
2019-03-03T03:13:14.215Z,19
2019-03-03T03:14:13.608Z,19
2019-03-03T03:15:13.770Z,19
2019-03-03T03:16:13.836Z,19
2019-03-03T03:17:13.629Z,19
2019-03-03T03:18:13.785Z,19
2019-03-03T03:19:13.811Z,19
2019-03-03T03:20:13.571Z,19
2019-03-03T03:21:13.710Z,19
2019-03-03T03:22:13.812Z,19
2019-03-03T03:23:13.606Z,19
2019-03-03T03:24:13.776Z,19
2019-03-03T03:25:13.832Z,19
2019-03-03T03:26:13.623Z,19
2019-03-03T03:27:13.816Z,19
2019-03-03T03:28:13.792Z,19
2019-03-03T03:29:13.656Z,19
2019-03-03T03:30:14.235Z,19
2019-03-03T03:31:13.951Z,19
2019-03-03T03:32:13.819Z,19
2019-03-03T03:33:13.798Z,19
2019-03-03T03:34:14.000Z,19
2019-03-03T03:35:13.644Z,19
2019-03-03T03:36:13.781Z,19
2019-03-03T03:37:13.765Z,19
2019-03-03T03:38:13.670Z,19
2019-03-03T03:39:13.799Z,19
2019-03-03T03:40:13.617Z,19
2019-03-03T03:41:13.678Z,19
2019-03-03T03:42:13.778Z,19
2019-03-03T03:43:13.676Z,19
2019-03-03T03:44:13.671Z,19
2019-03-03T03:45:13.946Z,19
2019-03-03T03:46:13.677Z,19
2019-03-03T03:47:13.704Z,19
2019-03-03T03:48:13.709Z,19
2019-03-03T03:49:13.693Z,19
2019-03-03T03:50:13.650Z,19
2019-03-03T03:51:13.833Z,19
2019-03-03T03:52:13.975Z,19
2019-03-03T03:53:13.606Z,19
2019-03-03T03:54:13.915Z,19
2019-03-03T03:55:13.625Z,19
2019-03-03T03:56:13.641Z,19
2019-03-03T03:57:13.830Z,19
2019-03-03T03:58:13.606Z,19
2019-03-03T03:59:13.596Z,19
2019-03-03T04:00:13.763Z,19
2019-03-03T04:01:13.606Z,19
2019-03-03T04:02:13.658Z,19
2019-03-03T04:03:13.766Z,19
2019-03-03T04:04:13.566Z,19
2019-03-03T04:05:13.649Z,19
2019-03-03T04:06:13.861Z,19
2019-03-03T04:07:13.808Z,19
2019-03-03T04:08:13.679Z,19
2019-03-03T04:09:13.893Z,19
2019-03-03T04:10:13.626Z,19
2019-03-03T04:11:13.667Z,19
2019-03-03T04:12:13.785Z,19
2019-03-03T04:13:13.665Z,19
2019-03-03T04:14:13.756Z,19
2019-03-03T04:15:13.786Z,19
2019-03-03T04:16:13.618Z,19
2019-03-03T04:17:13.661Z,19
2019-03-03T04:18:13.721Z,19
2019-03-03T04:19:13.593Z,19
2019-03-03T04:20:13.649Z,19
2019-03-03T04:21:13.755Z,19
2019-03-03T04:22:13.765Z,19
2019-03-03T04:23:13.610Z,19
2019-03-03T04:24:13.828Z,19
2019-03-03T04:25:13.583Z,19
2019-03-03T04:26:13.639Z,19
2019-03-03T04:27:13.781Z,19
2019-03-03T04:28:13.543Z,19
2019-03-03T04:29:13.650Z,18.75
2019-03-03T04:30:13.741Z,19
2019-03-03T04:31:13.513Z,18.75
2019-03-03T04:32:13.591Z,19
2019-03-03T04:33:13.773Z,19
2019-03-03T04:34:13.754Z,18.75
2019-03-03T04:35:13.625Z,18.75
2019-03-03T04:36:14.111Z,19
2019-03-03T04:37:13.984Z,18.75
2019-03-03T04:38:13.641Z,18.75
2019-03-03T04:39:13.825Z,19
2019-03-03T04:40:13.617Z,19
2019-03-03T04:41:13.632Z,18.75
2019-03-03T04:42:13.793Z,18.75
2019-03-03T04:43:13.577Z,19
2019-03-03T04:44:13.616Z,19
2019-03-03T04:45:13.743Z,19
2019-03-03T04:46:13.638Z,18.75
2019-03-03T04:47:13.632Z,18.75
2019-03-03T04:48:13.674Z,18.75
2019-03-03T04:49:13.600Z,18.75
2019-03-03T04:50:13.586Z,18.75
2019-03-03T04:51:13.852Z,19
2019-03-03T04:52:13.572Z,19
2019-03-03T04:53:13.629Z,19
2019-03-03T04:54:13.778Z,19
2019-03-03T04:55:13.632Z,19
2019-03-03T04:56:13.634Z,19
2019-03-03T04:57:13.826Z,19
2019-03-03T04:58:13.674Z,19
2019-03-03T04:59:14.638Z,19
2019-03-03T05:00:13.846Z,19
2019-03-03T05:01:13.616Z,19
2019-03-03T05:02:13.921Z,19
2019-03-03T05:03:13.757Z,19
2019-03-03T05:04:13.600Z,19
2019-03-03T05:05:13.711Z,19
2019-03-03T05:06:13.735Z,19
2019-03-03T05:07:13.636Z,19
2019-03-03T05:08:13.649Z,19
2019-03-03T05:09:14.056Z,19
2019-03-03T05:10:13.631Z,19
2019-03-03T05:11:13.644Z,19
2019-03-03T05:12:13.755Z,19
2019-03-03T05:13:13.663Z,19
2019-03-03T05:14:13.664Z,19
2019-03-03T05:15:13.741Z,19
2019-03-03T05:16:13.610Z,19
2019-03-03T05:17:13.663Z,19.25
2019-03-03T05:18:13.793Z,19.25
2019-03-03T05:19:13.601Z,19.25
2019-03-03T05:20:13.647Z,19.25
2019-03-03T05:21:14.135Z,19.25
2019-03-03T05:22:13.665Z,19.25
2019-03-03T05:23:13.676Z,19.25
2019-03-03T05:24:13.801Z,19.25
2019-03-03T05:25:13.597Z,19.25
2019-03-03T05:26:13.773Z,19.25
2019-03-03T05:27:13.841Z,19.25
2019-03-03T05:28:13.554Z,19.25
2019-03-03T05:29:13.678Z,19.25
2019-03-03T05:30:13.882Z,19.25
2019-03-03T05:31:13.628Z,19.25
2019-03-03T05:32:13.656Z,19.25
2019-03-03T05:33:13.814Z,19.25
2019-03-03T05:34:13.672Z,19.25
2019-03-03T05:35:13.594Z,19.5
2019-03-03T05:36:13.541Z,19.5
2019-03-03T05:37:13.606Z,19.5
2019-03-03T05:38:13.700Z,19.5
2019-03-03T05:39:13.501Z,19.5
2019-03-03T05:40:13.652Z,19.5
2019-03-03T05:41:13.615Z,19.5
2019-03-03T05:42:13.495Z,19.5
2019-03-03T05:43:13.756Z,19.5
2019-03-03T05:44:13.931Z,19.5
2019-03-03T05:45:13.527Z,19.5
2019-03-03T05:46:13.614Z,19.5
2019-03-03T05:47:13.742Z,19.5
2019-03-03T05:48:13.752Z,19.5
2019-03-03T05:49:13.642Z,19.5
2019-03-03T05:50:13.719Z,19.5
2019-03-03T05:51:13.547Z,19.5
2019-03-03T05:52:13.639Z,19.5
2019-03-03T05:53:13.694Z,19.5
2019-03-03T05:54:13.519Z,19.5
2019-03-03T05:55:13.699Z,19.5
2019-03-03T05:56:13.739Z,19.5
2019-03-03T05:57:13.540Z,19.75
2019-03-03T05:58:13.640Z,19.75
2019-03-03T05:59:13.722Z,19.75
2019-03-03T06:00:13.608Z,19.75
2019-03-03T06:01:13.708Z,19.75
2019-03-03T06:02:13.718Z,19.75
2019-03-03T06:03:13.530Z,19.75
2019-03-03T06:04:13.746Z,19.75
2019-03-03T06:05:13.577Z,19.75
2019-03-03T06:06:14.574Z,19.75
2019-03-03T06:07:13.694Z,19.75
2019-03-03T06:08:13.523Z,19.75
2019-03-03T06:09:13.558Z,19.75
2019-03-03T06:10:13.690Z,19.75
2019-03-03T06:11:13.505Z,19.75
2019-03-03T06:12:13.550Z,19.75
2019-03-03T06:13:13.713Z,19.75
2019-03-03T06:14:13.528Z,19.75
2019-03-03T06:15:13.630Z,19.75
2019-03-03T06:16:13.794Z,19.75
2019-03-03T06:17:13.701Z,19.75
2019-03-03T06:18:13.667Z,19.75
2019-03-03T06:19:13.744Z,19.75
2019-03-03T06:20:13.591Z,19.75
2019-03-03T06:21:13.561Z,19.75
2019-03-03T06:22:13.773Z,19.75
2019-03-03T06:23:13.568Z,19.75
2019-03-03T06:24:13.648Z,19.75
2019-03-03T06:25:13.733Z,19.75
2019-03-03T06:26:13.548Z,19.75
2019-03-03T06:27:13.707Z,19.75
2019-03-03T06:28:14.060Z,19.75
2019-03-03T06:29:13.705Z,19.75
2019-03-03T06:30:13.646Z,19.75
2019-03-03T06:31:13.767Z,19.75
2019-03-03T06:32:15.536Z,20
2019-03-03T06:33:13.750Z,20
2019-03-03T06:34:13.467Z,20
2019-03-03T06:35:13.607Z,20
2019-03-03T06:36:13.662Z,20
2019-03-03T06:37:13.596Z,20
2019-03-03T06:38:13.578Z,20
2019-03-03T06:39:13.636Z,20
2019-03-03T06:40:13.518Z,20
2019-03-03T06:41:13.621Z,20
2019-03-03T06:42:13.774Z,20
2019-03-03T06:43:13.529Z,20
2019-03-03T06:44:13.644Z,20
2019-03-03T06:45:13.670Z,20
2019-03-03T06:46:13.560Z,20
2019-03-03T06:47:13.886Z,20
2019-03-03T06:48:13.502Z,20
2019-03-03T06:49:15.539Z,20
2019-03-03T06:50:13.718Z,20
2019-03-03T06:51:13.545Z,20
2019-03-03T06:52:13.572Z,20
2019-03-03T06:53:13.757Z,20
2019-03-03T06:54:13.593Z,20
2019-03-03T06:55:13.628Z,20
2019-03-03T06:56:13.709Z,20
2019-03-03T06:57:13.570Z,20
2019-03-03T06:58:13.792Z,20
2019-03-03T06:59:13.703Z,20
2019-03-03T07:00:13.584Z,20
2019-03-03T07:01:13.642Z,20
2019-03-03T07:02:13.508Z,20
2019-03-03T07:03:13.563Z,20
2019-03-03T07:04:13.718Z,20
2019-03-03T07:05:13.774Z,20
2019-03-03T07:06:13.673Z,20
2019-03-03T07:07:13.727Z,20
2019-03-03T07:08:13.785Z,20
2019-03-03T07:09:13.632Z,20
2019-03-03T07:10:13.640Z,20
2019-03-03T07:11:13.832Z,20
2019-03-03T07:12:14.764Z,20
2019-03-03T07:13:13.645Z,20
2019-03-03T07:14:13.614Z,20
2019-03-03T07:15:13.703Z,20
2019-03-03T07:16:13.673Z,20
2019-03-03T07:17:13.475Z,20.25
2019-03-03T07:18:13.661Z,20.25
2019-03-03T07:19:13.717Z,20.25
2019-03-03T07:20:13.574Z,20.25
2019-03-03T07:21:13.688Z,20.25
2019-03-03T07:22:13.442Z,20.25
2019-03-03T07:23:13.642Z,20.25
2019-03-03T07:24:13.742Z,20.25
2019-03-03T07:25:13.570Z,20.25
2019-03-03T07:26:13.596Z,20.25
2019-03-03T07:27:13.813Z,20.25
2019-03-03T07:28:13.536Z,20.25
2019-03-03T07:29:13.606Z,20.25
2019-03-03T07:30:13.796Z,20.25
2019-03-03T07:31:13.596Z,20.25
2019-03-03T07:32:13.598Z,20.25
2019-03-03T07:33:14.142Z,20.25
2019-03-03T07:34:13.964Z,20.25
2019-03-03T07:35:13.754Z,20.25
2019-03-03T07:36:13.539Z,20.25
2019-03-03T07:37:13.608Z,20.25
2019-03-03T07:38:13.706Z,20.25
2019-03-03T07:39:13.501Z,20.25
2019-03-03T07:40:13.610Z,20.25
2019-03-03T07:41:13.653Z,20.25
2019-03-03T07:42:13.609Z,20.25
2019-03-03T07:43:13.909Z,20.25
2019-03-03T07:44:13.774Z,20.25
2019-03-03T07:45:13.624Z,20.25
2019-03-03T07:46:13.802Z,20.25
2019-03-03T07:47:13.550Z,20.25
2019-03-03T07:48:13.913Z,20.25
2019-03-03T07:49:13.783Z,20.25
2019-03-03T07:50:13.868Z,20.25
2019-03-03T07:51:13.593Z,20.25
2019-03-03T07:52:13.783Z,20.25
2019-03-03T07:53:13.630Z,20.25
2019-03-03T07:54:13.763Z,20.25
2019-03-03T07:55:13.915Z,20.25
2019-03-03T07:56:14.410Z,20.25
2019-03-03T07:57:13.804Z,20.25
2019-03-03T07:58:13.570Z,20.25
2019-03-03T07:59:13.632Z,20.25
2019-03-03T08:00:13.763Z,20.25
2019-03-03T08:01:13.616Z,20.25
2019-03-03T08:02:13.705Z,20.25
2019-03-03T08:03:13.634Z,20.25
2019-03-03T08:04:13.635Z,20.25
2019-03-03T08:05:13.752Z,20.25
2019-03-03T08:06:13.585Z,20.25
2019-03-03T08:07:13.615Z,20.25
2019-03-03T08:08:13.778Z,20.25
2019-03-03T08:09:13.657Z,20.25
2019-03-03T08:10:13.644Z,20.25
2019-03-03T08:11:13.828Z,20.25
2019-03-03T08:12:13.666Z,20.25
2019-03-03T08:13:13.703Z,20.25
2019-03-03T08:14:13.601Z,20.25
2019-03-03T08:15:13.640Z,20.25
2019-03-03T08:16:13.765Z,20.25
2019-03-03T08:17:13.963Z,20.25
2019-03-03T08:18:13.739Z,20.25
2019-03-03T08:19:13.752Z,20.25
2019-03-03T08:20:13.579Z,20.25
2019-03-03T08:21:13.921Z,20.25
2019-03-03T08:22:13.604Z,20.25
2019-03-03T08:23:13.648Z,20.25
2019-03-03T08:24:13.735Z,20.25
2019-03-03T08:25:13.525Z,20.25
2019-03-03T08:26:13.584Z,20.25
2019-03-03T08:27:13.719Z,20.25
2019-03-03T08:28:13.609Z,20.25
2019-03-03T08:29:13.715Z,20.25
2019-03-03T08:30:13.782Z,20.25
2019-03-03T08:31:13.541Z,20.25
2019-03-03T08:32:13.708Z,20.25
2019-03-03T08:33:13.787Z,20.25
2019-03-03T08:34:13.675Z,20.25
2019-03-03T08:35:13.629Z,20.25
2019-03-03T08:36:13.535Z,20.25
2019-03-03T08:37:13.771Z,20.25
2019-03-03T08:38:13.721Z,20.25
2019-03-03T08:39:13.516Z,20.25
2019-03-03T08:40:13.866Z,20.25
2019-03-03T08:41:13.495Z,20.25
2019-03-03T08:42:13.643Z,20.25
2019-03-03T08:43:13.750Z,20.25
2019-03-03T08:44:13.568Z,20.25
2019-03-03T08:45:13.659Z,20.25
2019-03-03T08:46:13.807Z,20.25
2019-03-03T08:47:13.564Z,20.25
2019-03-03T08:48:13.730Z,20.25
2019-03-03T08:49:13.780Z,20.25
2019-03-03T08:50:13.545Z,20.25
2019-03-03T08:51:13.713Z,20.25
2019-03-03T08:52:13.449Z,20.25
2019-03-03T08:53:13.676Z,20.25
2019-03-03T08:54:13.729Z,20.25
2019-03-03T08:55:13.513Z,20.25
2019-03-03T08:56:13.646Z,20.25
2019-03-03T08:57:13.669Z,20.25
2019-03-03T08:58:13.442Z,20.25
2019-03-03T08:59:13.641Z,20.25
2019-03-03T09:00:13.790Z,20.25
2019-03-03T09:01:13.557Z,20.25
2019-03-03T09:02:13.694Z,20.25
2019-03-03T09:03:13.790Z,20.25
2019-03-03T09:04:13.598Z,20.25
2019-03-03T09:05:13.600Z,20.25
2019-03-03T09:06:13.934Z,20.25
2019-03-03T09:07:13.468Z,20.25
2019-03-03T09:08:13.621Z,20.25
2019-03-03T09:09:13.589Z,20.25
2019-03-03T09:10:13.501Z,20.25
2019-03-03T09:11:13.609Z,20.25
2019-03-03T09:12:13.465Z,20.25
2019-03-03T09:13:13.591Z,20.25
2019-03-03T09:14:13.696Z,20
2019-03-03T09:15:13.446Z,20
2019-03-03T09:16:13.518Z,20.25
2019-03-03T09:17:13.666Z,20.25
2019-03-03T09:18:13.529Z,20.25
2019-03-03T09:19:13.620Z,20.25
2019-03-03T09:20:13.640Z,20.25
2019-03-03T09:21:13.486Z,20.25
2019-03-03T09:22:13.485Z,20.25
2019-03-03T09:23:13.737Z,20.25
2019-03-03T09:24:13.594Z,20.25
2019-03-03T09:25:13.638Z,20.25
2019-03-03T09:26:13.651Z,20.25
2019-03-03T09:27:13.532Z,20.25
2019-03-03T09:28:13.599Z,20.25
2019-03-03T09:29:13.682Z,20.25
2019-03-03T09:30:13.476Z,20.25
2019-03-03T09:31:13.483Z,20.25
2019-03-03T09:32:13.629Z,20.25
2019-03-03T09:33:13.447Z,20.25
2019-03-03T09:34:13.474Z,20.25
2019-03-03T09:35:13.627Z,20.25
2019-03-03T09:36:13.465Z,20.25
2019-03-03T09:37:13.487Z,20.25
2019-03-03T09:38:13.582Z,20.25
2019-03-03T09:39:13.433Z,20.25
2019-03-03T09:40:13.467Z,20.25
2019-03-03T09:41:13.610Z,20.25
2019-03-03T09:42:13.573Z,20.25
2019-03-03T09:43:13.544Z,20.5
2019-03-03T09:44:13.623Z,20.5
2019-03-03T09:45:13.558Z,20.5
2019-03-03T09:46:13.595Z,20.5
2019-03-03T09:47:13.598Z,20.5
2019-03-03T09:48:13.490Z,20.5
2019-03-03T09:49:13.533Z,20.5
2019-03-03T09:50:13.561Z,20.5
2019-03-03T09:51:13.536Z,20.5
2019-03-03T09:52:13.427Z,20.5
2019-03-03T09:53:13.641Z,20.5
2019-03-03T09:54:13.503Z,20.5
2019-03-03T09:55:13.553Z,20.5
2019-03-03T09:56:13.714Z,20.5
2019-03-03T09:57:13.443Z,20.5
2019-03-03T09:58:13.489Z,20.5
2019-03-03T09:59:13.722Z,20.5
2019-03-03T10:00:13.664Z,20.5
2019-03-03T10:01:13.459Z,20.5
2019-03-03T10:02:13.618Z,20.5
2019-03-03T10:03:13.566Z,20.5
2019-03-03T10:04:13.508Z,20.5
2019-03-03T10:05:13.612Z,20.5
2019-03-03T10:06:13.517Z,20.5
2019-03-03T10:07:13.893Z,20.5
2019-03-03T10:08:13.586Z,20.75
2019-03-03T10:09:13.485Z,20.75
2019-03-03T10:10:13.484Z,20.75
2019-03-03T10:11:13.745Z,20.75
2019-03-03T10:12:13.449Z,20.75
2019-03-03T10:13:13.633Z,20.75
2019-03-03T10:14:13.668Z,20.75
2019-03-03T10:15:13.540Z,20.75
2019-03-03T10:16:13.527Z,20.75
2019-03-03T10:17:13.649Z,20.75
2019-03-03T10:18:13.477Z,20.75
2019-03-03T10:19:13.550Z,20.75
2019-03-03T10:20:13.687Z,20.75
2019-03-03T10:21:13.568Z,20.75
2019-03-03T10:22:13.618Z,20.75
2019-03-03T10:23:13.748Z,20.75
2019-03-03T10:24:13.493Z,20.75
2019-03-03T10:25:13.447Z,20.75
2019-03-03T10:26:13.652Z,20.75
2019-03-03T10:27:13.497Z,20.75
2019-03-03T10:28:14.500Z,20.75
2019-03-03T10:29:13.831Z,20.75
2019-03-03T10:30:13.574Z,20.75
2019-03-03T10:31:13.486Z,20.75
2019-03-03T10:32:13.686Z,20.75
2019-03-03T10:33:13.542Z,20.75
2019-03-03T10:34:13.562Z,20.75
2019-03-03T10:35:13.682Z,20.75
2019-03-03T10:36:13.555Z,20.75
2019-03-03T10:37:14.736Z,20.75
2019-03-03T10:38:13.440Z,20.75
2019-03-03T10:39:13.553Z,20.75
2019-03-03T10:40:13.685Z,20.75
2019-03-03T10:41:13.419Z,20.75
2019-03-03T10:42:13.462Z,20.75
2019-03-03T10:43:13.518Z,20.75
2019-03-03T10:44:13.445Z,20.75
2019-03-03T10:45:13.574Z,20.75
2019-03-03T10:46:13.584Z,20.75
2019-03-03T10:47:13.455Z,20.75
2019-03-03T10:48:13.536Z,20.75
2019-03-03T10:49:13.705Z,20.75
2019-03-03T10:50:13.494Z,20.75
2019-03-03T10:51:13.598Z,20.75
2019-03-03T10:52:13.647Z,20.75
2019-03-03T10:53:13.438Z,20.75
2019-03-03T10:54:13.579Z,20.75
2019-03-03T10:55:13.838Z,20.75
2019-03-03T10:56:13.394Z,20.75
2019-03-03T10:57:13.672Z,20.75
2019-03-03T10:58:13.589Z,20.75
2019-03-03T10:59:13.400Z,20.75
2019-03-03T11:00:13.621Z,20.75
2019-03-03T11:01:13.785Z,20.75
2019-03-03T11:02:13.515Z,20.75
2019-03-03T11:03:13.575Z,20.75
2019-03-03T11:04:13.431Z,20.75
2019-03-03T11:05:13.499Z,20.75
2019-03-03T11:06:13.782Z,20.75
2019-03-03T11:07:13.480Z,20.75
2019-03-03T11:08:13.448Z,20.75
2019-03-03T11:09:13.588Z,20.75
2019-03-03T11:10:13.419Z,20.75
2019-03-03T11:11:13.845Z,20.75
2019-03-03T11:12:13.708Z,20.75
2019-03-03T11:13:13.889Z,20.75
2019-03-03T11:14:13.634Z,20.75
2019-03-03T11:15:19.057Z,20.75
2019-03-03T11:16:13.773Z,20.75
2019-03-03T11:17:13.579Z,20.75
2019-03-03T11:18:14.314Z,20.75
2019-03-03T11:19:13.493Z,20.75
2019-03-03T11:20:13.495Z,20.75
2019-03-03T11:21:13.671Z,20.75
2019-03-03T11:22:13.405Z,20.75
2019-03-03T11:23:13.480Z,20.75
2019-03-03T11:24:13.733Z,20.75
2019-03-03T11:25:13.521Z,20.75
2019-03-03T11:26:13.497Z,20.75
2019-03-03T11:27:13.658Z,20.75
2019-03-03T11:28:24.169Z,20.75
2019-03-03T11:29:13.599Z,20.75
2019-03-03T11:30:13.644Z,20.75
2019-03-03T11:31:13.714Z,20.75
2019-03-03T11:32:13.523Z,20.75
2019-03-03T11:33:13.701Z,20.75
2019-03-03T11:34:13.802Z,20.75
2019-03-03T11:35:13.827Z,20.75
2019-03-03T11:36:13.667Z,20.75
2019-03-03T11:37:14.346Z,20.75
2019-03-03T11:38:13.560Z,20.75
2019-03-03T11:39:13.311Z,20.75
2019-03-03T11:40:13.439Z,20.75
2019-03-03T11:41:13.673Z,20.75
2019-03-03T11:42:13.489Z,20.75
2019-03-03T11:43:13.536Z,20.75
2019-03-03T11:44:13.693Z,20.75
2019-03-03T11:45:13.537Z,20.75
2019-03-03T11:46:13.500Z,20.75
2019-03-03T11:47:13.585Z,20.75
2019-03-03T11:48:13.510Z,20.75
2019-03-03T11:49:13.542Z,21
2019-03-03T11:50:13.679Z,20.75
2019-03-03T11:51:13.394Z,20.75
2019-03-03T11:52:13.587Z,21
2019-03-03T11:53:13.646Z,20.75
2019-03-03T11:54:13.656Z,20.75
2019-03-03T11:55:13.590Z,21
2019-03-03T11:56:13.679Z,20.75
2019-03-03T11:57:13.385Z,20.75
2019-03-03T11:58:13.550Z,20.75
2019-03-03T11:59:13.581Z,21
2019-03-03T12:00:13.364Z,20.75
2019-03-03T12:01:13.569Z,21
2019-03-03T12:02:13.537Z,20.75
2019-03-03T12:03:13.349Z,21
2019-03-03T12:04:13.448Z,21
2019-03-03T12:05:13.690Z,21
2019-03-03T12:06:13.491Z,21
2019-03-03T12:07:13.463Z,21
2019-03-03T12:08:13.650Z,21
2019-03-03T12:09:13.407Z,21
2019-03-03T12:10:13.428Z,21
2019-03-03T12:11:15.098Z,21
2019-03-03T12:12:13.494Z,21
2019-03-03T12:13:14.801Z,21
2019-03-03T12:14:13.552Z,21
2019-03-03T12:15:13.394Z,21
2019-03-03T12:16:13.518Z,21
2019-03-03T12:17:13.549Z,21
2019-03-03T12:18:13.751Z,21
2019-03-03T12:19:13.577Z,21
2019-03-03T12:20:13.539Z,21
2019-03-03T12:21:13.335Z,21
2019-03-03T12:22:13.534Z,21
2019-03-03T12:23:13.697Z,21
2019-03-03T12:24:13.340Z,21
2019-03-03T12:25:13.554Z,21
2019-03-03T12:26:13.678Z,21
2019-03-03T12:27:13.538Z,21
2019-03-03T12:28:13.539Z,21
2019-03-03T12:29:13.588Z,21
2019-03-03T12:30:13.385Z,21
2019-03-03T12:31:13.515Z,21
2019-03-03T12:32:13.585Z,21
2019-03-03T12:33:13.358Z,21
2019-03-03T12:34:13.512Z,21
2019-03-03T12:35:13.694Z,21
2019-03-03T12:36:13.553Z,21
2019-03-03T12:37:13.568Z,21
2019-03-03T12:38:13.683Z,21
2019-03-03T12:39:13.390Z,21
2019-03-03T12:40:13.543Z,21
2019-03-03T12:41:13.661Z,21
2019-03-03T12:42:13.411Z,21
2019-03-03T12:43:13.594Z,21
2019-03-03T12:44:13.622Z,21
2019-03-03T12:45:13.369Z,21
2019-03-03T12:46:13.567Z,21
2019-03-03T12:47:13.349Z,21
2019-03-03T12:48:13.520Z,21
2019-03-03T12:49:13.617Z,21
2019-03-03T12:50:13.458Z,21
2019-03-03T12:51:13.524Z,21
2019-03-03T12:52:13.584Z,21
2019-03-03T12:53:13.462Z,21
2019-03-03T12:54:13.548Z,21
2019-03-03T12:55:13.572Z,21
2019-03-03T12:56:13.345Z,21
2019-03-03T12:57:13.431Z,21
2019-03-03T12:58:13.580Z,21
2019-03-03T12:59:13.428Z,20.75
2019-03-03T13:00:13.561Z,21
2019-03-03T13:01:13.594Z,21
2019-03-03T13:02:13.382Z,21
2019-03-03T13:03:13.460Z,21
2019-03-03T13:04:13.532Z,20.75
2019-03-03T13:05:13.403Z,20.75
2019-03-03T13:06:13.391Z,21
2019-03-03T13:07:13.559Z,20.75
2019-03-03T13:08:13.370Z,20.75
2019-03-03T13:09:13.488Z,20.75
2019-03-03T13:10:13.473Z,20.75
2019-03-03T13:11:13.358Z,20.75
2019-03-03T13:12:13.446Z,20.75
2019-03-03T13:13:13.654Z,20.75
2019-03-03T13:14:13.483Z,20.75
2019-03-03T13:15:13.566Z,20.75
2019-03-03T13:16:13.593Z,20.75
2019-03-03T13:17:13.414Z,20.75
2019-03-03T13:18:13.406Z,20.75
2019-03-03T13:19:13.555Z,20.75
2019-03-03T13:20:13.351Z,20.75
2019-03-03T13:21:13.438Z,20.75